Time;durP1;ratioP1;P1;durP2;ratioP2;P2;SDS_P1;SDS_P2;PMS_P1;PMS_P2;Temp;Humidity;BMP_temperature;BMP_pressure;BME280_temperature;BME280_humidity;BME280_pressure;Samples;Min_cycle;Max_cycle;Signal;HPM_P1;HPM_P2
2022/04/10 00:01:46;;;;;;;6.70;3.40;;;7.40;89.10;;;;;;6149704;23;20551;-82
2022/04/10 00:04:19;;;;;;;6.50;3.50;;;7.40;89.10;;;;;;6128239;23;20414;-82
2022/04/10 00:07:17;;;;;;;5.23;3.77;;;7.30;89.40;;;;;;6130531;23;20921;-84
2022/04/10 00:10:08;;;;;;;5.63;3.57;;;7.40;89.50;;;;;;6152979;23;20415;-81
2022/04/10 00:13:05;;;;;;;5.40;3.40;;;7.50;89.50;;;;;;6131912;23;20526;-82
2022/04/10 00:19:29;;;;;;;5.40;3.53;;;7.40;89.90;;;;;;5988211;24;20499;-81
2022/04/10 00:22:29;;;;;;;4.90;3.43;;;7.30;90.00;;;;;;5997741;23;20420;-85
2022/04/10 00:25:44;;;;;;;4.17;3.37;;;7.20;90.30;;;;;;6072177;23;20397;-85
2022/04/10 00:28:40;;;;;;;6.00;3.63;;;7.20;90.40;;;;;;6064655;23;20433;-84
2022/04/10 00:31:30;;;;;;;8.50;3.80;;;7.10;90.60;;;;;;6066561;23;20985;-86
2022/04/10 00:34:37;;;;;;;5.40;3.70;;;7.10;90.70;;;;;;6063054;23;20599;-83
2022/04/10 00:37:30;;;;;;;4.67;4.03;;;7.10;90.90;;;;;;6102202;23;20422;-82
2022/04/10 00:40:02;;;;;;;6.30;4.23;;;7.00;91.10;;;;;;6128179;23;20414;-82
2022/04/10 00:42:54;;;;;;;6.20;3.90;;;7.00;91.20;;;;;;6152136;23;20551;-83
2022/04/10 00:46:02;;;;;;;;;;;;;;;;;;;;;
2022/04/10 00:48:56;;;;;;;4.07;2.87;;;7.00;91.40;;;;;;6153714;23;21116;-84
2022/04/10 00:51:46;;;;;;;6.20;3.40;;;7.00;91.50;;;;;;6124174;23;20461;-81
2022/04/10 00:54:36;;;;;;;4.33;3.40;;;7.00;91.60;;;;;;6131419;23;20418;-84
2022/04/10 00:57:13;;;;;;;6.73;3.30;;;7.00;91.70;;;;;;6156699;23;20489;-85
2022/04/10 00:59:54;;;;;;;5.30;3.70;;;6.90;91.70;;;;;;6126491;23;20423;-84
2022/04/10 01:02:36;;;;;;;7.63;3.97;;;6.90;91.70;;;;;;6150433;23;20422;-82
2022/04/10 01:16:24;;;;;;;5.13;2.53;;;7.00;91.80;;;;;;5650982;22;12476052;-84
2022/04/10 01:19:11;;;;;;;5.30;2.73;;;6.80;92.20;;;;;;6131855;23;20178;-87
2022/04/10 01:22:08;;;;;;;5.20;3.30;;;6.80;92.40;;;;;;6140379;23;20449;-85
2022/04/10 01:24:43;;;;;;;3.90;3.00;;;6.70;92.40;;;;;;6134072;23;20438;-83
2022/04/10 01:27:36;;;;;;;4.50;4.10;;;6.70;92.70;;;;;;6134960;23;20960;-83
2022/04/10 01:30:19;;;;;;;4.27;2.70;;;6.70;92.70;;;;;;6134563;23;20414;-83
2022/04/10 01:33:14;;;;;;;5.50;3.27;;;6.60;92.80;;;;;;6122909;23;20413;-81
2022/04/10 01:35:59;;;;;;;5.03;2.47;;;6.60;92.80;;;;;;6136560;23;20422;-83
2022/04/10 01:38:59;;;;;;;4.73;2.70;;;6.70;92.90;;;;;;6116912;23;20410;-85
2022/04/10 01:41:51;;;;;;;5.60;2.43;;;6.60;93.00;;;;;;6137180;23;20441;-86
2022/04/10 01:44:43;;;;;;;4.87;3.27;;;6.60;93.10;;;;;;6156878;23;20470;-84
2022/04/10 01:47:16;;;;;;;4.00;3.07;;;6.60;93.10;;;;;;6143636;23;20434;-86
2022/04/10 01:49:49;;;;;;;4.33;3.10;;;6.60;93.10;;;;;;6137022;23;20496;-82
2022/04/10 01:52:50;;;;;;;4.93;3.30;;;6.50;93.20;;;;;;6136055;23;21072;-85
2022/04/10 01:55:28;;;;;;;2.90;2.70;;;6.50;93.40;;;;;;6140859;23;20428;-84
2022/04/10 01:58:16;;;;;;;5.43;3.10;;;6.50;93.30;;;;;;6107731;23;20458;-82
2022/04/10 02:00:47;;;;;;;5.67;3.77;;;6.60;93.30;;;;;;6104005;23;20433;-82
2022/04/10 02:03:29;;;;;;;5.80;2.77;;;6.60;93.20;;;;;;6112486;23;20473;-82
2022/04/10 02:06:15;;;;;;;5.07;2.97;;;6.60;93.30;;;;;;6110158;23;20407;-85
2022/04/10 02:09:08;;;;;;;6.00;2.90;;;6.70;93.20;;;;;;6115400;23;20434;-84
2022/04/10 02:12:08;;;;;;;6.20;4.33;;;6.60;93.20;;;;;;6118660;23;20411;-86
2022/04/10 02:15:38;;;;;;;;;;;;;;;;;;;;;
2022/04/10 02:18:42;;;;;;;5.03;2.77;;;6.40;93.70;;;;;;6134260;23;20534;-87
2022/04/10 02:21:27;;;;;;;5.60;2.43;;;6.50;93.80;;;;;;6106794;23;20627;-85
2022/04/10 02:24:22;;;;;;;6.97;3.00;;;6.40;93.90;;;;;;6122067;23;20927;-83
2022/04/10 02:27:14;;;;;;;4.30;2.73;;;6.40;93.90;;;;;;6103815;23;20446;-88
2022/04/10 02:30:06;;;;;;;7.30;3.50;;;6.40;94.10;;;;;;6100733;23;20466;-85
2022/04/10 02:33:06;;;;;;;8.50;2.67;;;6.40;94.20;;;;;;6100433;23;20525;-83
2022/04/10 02:35:48;;;;;;;4.23;2.90;;;6.40;94.30;;;;;;6103871;23;20915;-85
2022/04/10 02:38:27;;;;;;;10.80;3.77;;;6.40;94.40;;;;;;6103619;23;20439;-82
2022/04/10 02:41:04;;;;;;;7.53;3.17;;;6.40;94.30;;;;;;6100029;23;20519;-82
2022/04/10 02:43:42;;;;;;;3.70;2.70;;;6.40;94.40;;;;;;6097887;23;20878;-84
2022/04/10 02:46:45;;;;;;;3.57;2.43;;;6.40;94.40;;;;;;6099259;23;20469;-82
2022/04/10 02:49:15;;;;;;;3.87;2.97;;;6.30;94.50;;;;;;6123535;23;20416;-84
2022/04/10 02:51:49;;;;;;;7.57;3.43;;;6.30;94.50;;;;;;6094341;23;20810;-84
2022/04/10 02:54:19;;;;;;;2.93;2.70;;;6.30;94.60;;;;;;6094015;23;20953;-84
2022/04/10 02:56:46;;;;;;;7.70;3.10;;;6.30;94.60;;;;;;6092778;23;20415;-81
2022/04/10 02:59:13;;;;;;;4.93;2.97;;;6.30;94.70;;;;;;6092604;23;20420;-80
2022/04/10 03:01:43;;;;;;;3.83;3.03;;;6.30;94.70;;;;;;6094008;23;20423;-82
2022/04/10 03:04:10;;;;;;;3.23;2.60;;;6.30;94.80;;;;;;6093697;23;20564;-82
2022/04/10 03:06:37;;;;;;;4.73;3.20;;;6.40;94.90;;;;;;6101277;23;20404;-85
2022/04/10 03:09:04;;;;;;;7.77;2.80;;;6.30;94.90;;;;;;6129541;23;20416;-83
2022/04/10 03:11:32;;;;;;;6.43;3.03;;;6.40;94.90;;;;;;6120977;23;20403;-83
2022/04/10 03:14:02;;;;;;;5.67;2.90;;;6.40;94.90;;;;;;6096324;23;20416;-81
2022/04/10 03:16:29;;;;;;;6.23;2.97;;;6.40;94.90;;;;;;6121043;23;20535;-84
2022/04/10 03:18:55;;;;;;;5.50;2.93;;;6.40;94.90;;;;;;6120056;23;20431;-84
2022/04/10 03:21:24;;;;;;;3.53;2.60;;;6.40;94.90;;;;;;6121761;23;20424;-82
2022/04/10 03:24:04;;;;;;;7.40;2.70;;;6.50;95.00;;;;;;6119518;23;20443;-84
2022/04/10 03:26:40;;;;;;;5.10;3.17;;;6.50;95.00;;;;;;6119099;23;20416;-84
2022/04/10 03:29:09;;;;;;;5.40;2.47;;;6.50;94.90;;;;;;6094170;23;20452;-83
2022/04/10 03:31:36;;;;;;;5.63;2.90;;;6.50;95.00;;;;;;6118491;23;20418;-83
2022/04/10 03:34:03;;;;;;;5.80;3.10;;;6.50;95.10;;;;;;6120129;23;20420;-82
2022/04/10 03:36:35;;;;;;;6.77;3.40;;;6.50;95.10;;;;;;6095411;23;20444;-81
2022/04/10 03:39:04;;;;;;;5.60;2.77;;;6.50;95.10;;;;;;6103805;23;20447;-84
2022/04/10 03:41:31;;;;;;;4.70;2.77;;;6.50;95.10;;;;;;6126113;23;20415;-84
2022/04/10 03:44:00;;;;;;;5.30;2.60;;;6.50;95.00;;;;;;6130885;23;20454;-86
2022/04/10 03:46:32;;;;;;;3.67;2.63;;;6.50;95.00;;;;;;6138260;23;20422;-87
2022/04/10 03:49:02;;;;;;;4.67;2.70;;;6.50;95.00;;;;;;6114245;23;20439;-86
2022/04/10 03:51:29;;;;;;;4.53;3.13;;;6.60;95.00;;;;;;6100119;23;20499;-85
2022/04/10 03:53:58;;;;;;;3.20;2.90;;;6.60;94.80;;;;;;6089415;23;20475;-86
2022/04/10 03:56:28;;;;;;;6.33;3.53;;;6.50;95.00;;;;;;6095137;23;20455;-84
2022/04/10 03:58:55;;;;;;;7.13;3.20;;;6.50;95.20;;;;;;6094439;23;21094;-84
2022/04/10 04:01:28;;;;;;;4.60;3.30;;;6.50;95.30;;;;;;6094112;23;20491;-84
2022/04/10 04:03:57;;;;;;;4.07;2.80;;;6.60;95.30;;;;;;6096217;23;20475;-84
2022/04/10 04:06:26;;;;;;;7.23;3.50;;;6.80;94.60;;;;;;6122006;23;20473;-84
2022/04/10 04:08:57;;;;;;;9.67;3.63;;;6.70;94.60;;;;;;6094887;23;20444;-85
2022/04/10 04:11:24;;;;;;;4.73;2.83;;;6.50;94.90;;;;;;6120520;23;20436;-83
2022/04/10 04:13:55;;;;;;;6.63;4.00;;;6.50;95.20;;;;;;6121801;23;20419;-85
2022/04/10 04:16:22;;;;;;;6.10;3.67;;;6.60;95.30;;;;;;6123482;23;20915;-84
2022/04/10 04:18:53;;;;;;;6.87;3.77;;;6.60;95.10;;;;;;6100870;23;20439;-86
2022/04/10 04:21:21;;;;;;;5.97;3.30;;;6.60;95.10;;;;;;6133984;23;20410;-85
2022/04/10 04:23:48;;;;;;;10.23;4.53;;;6.60;95.10;;;;;;6134757;23;20426;-83
2022/04/10 04:26:15;;;;;;;3.80;3.03;;;6.60;95.30;;;;;;6131826;23;20678;-84
2022/04/10 04:28:42;;;;;;;5.10;4.30;;;6.50;95.30;;;;;;6097831;23;20534;-85
2022/04/10 04:31:09;;;;;;;8.17;4.47;;;6.50;95.40;;;;;;6129314;23;20396;-85
2022/04/10 04:33:38;;;;;;;6.37;4.60;;;6.80;95.10;;;;;;6113961;23;20524;-85
2022/04/10 04:36:05;;;;;;;6.47;4.63;;;6.80;94.90;;;;;;6137512;23;20917;-85
2022/04/10 04:38:34;;;;;;;5.27;4.10;;;6.70;95.10;;;;;;6138756;23;20444;-87
2022/04/10 04:41:01;;;;;;;8.30;5.13;;;6.70;94.90;;;;;;6113827;23;20439;-86
2022/04/10 04:43:28;;;;;;;7.60;4.40;;;6.70;95.00;;;;;;6112993;23;20450;-86
2022/04/10 04:46:02;;;;;;;6.80;4.40;;;6.70;95.00;;;;;;6107754;23;20451;-81
2022/04/10 04:48:28;;;;;;;7.87;4.27;;;6.70;95.00;;;;;;6121599;23;20432;-83
2022/04/10 04:51:02;;;;;;;8.13;5.27;;;6.70;95.00;;;;;;6122106;23;20460;-79
2022/04/10 04:53:29;;;;;;;4.77;4.30;;;6.60;95.00;;;;;;6121531;23;20437;-83
2022/04/10 04:56:06;;;;;;;5.73;3.80;;;6.60;95.20;;;;;;6124431;23;20431;-81
2022/04/10 04:58:39;;;;;;;13.87;4.40;;;6.70;95.30;;;;;;6121659;23;20435;-83
2022/04/10 05:01:07;;;;;;;8.33;4.53;;;6.60;95.30;;;;;;6093228;23;20447;-83
2022/04/10 05:03:40;;;;;;;7.00;4.40;;;6.70;95.40;;;;;;6119741;23;20412;-84
2022/04/10 05:06:10;;;;;;;7.60;3.90;;;6.60;95.50;;;;;;6094785;23;20452;-83
2022/04/10 05:08:48;;;;;;;5.37;4.40;;;6.60;95.50;;;;;;6094779;23;20439;-84
2022/04/10 05:11:22;;;;;;;8.83;4.57;;;6.60;95.60;;;;;;6092801;23;20907;-82
2022/04/10 05:13:53;;;;;;;5.30;3.90;;;6.60;95.70;;;;;;6094132;23;20415;-81
2022/04/10 05:16:27;;;;;;;8.13;4.73;;;6.60;95.70;;;;;;6092907;23;20485;-85
2022/04/10 05:19:05;;;;;;;6.50;4.40;;;6.70;95.80;;;;;;6119008;23;20935;-83
2022/04/10 05:21:35;;;;;;;6.33;4.83;;;7.20;95.30;;;;;;6120568;23;21114;-81
2022/04/10 05:24:07;;;;;;;7.23;4.90;;;7.30;94.50;;;;;;6096142;23;20486;-82
2022/04/10 05:26:42;;;;;;;6.40;4.90;;;7.60;93.60;;;;;;6120487;23;20412;-83
2022/04/10 05:29:20;;;;;;;6.73;5.23;;;7.60;93.30;;;;;;6097275;23;20435;-84
2022/04/10 05:31:56;;;;;;;6.40;5.10;;;7.50;93.40;;;;;;6098075;23;20502;-83
2022/04/10 05:34:30;;;;;;;8.77;5.10;;;7.60;93.50;;;;;;6114655;23;20434;-86
2022/04/10 05:37:02;;;;;;;6.90;5.33;;;7.40;93.60;;;;;;6094677;23;20475;-84
2022/04/10 05:39:42;;;;;;;6.10;4.87;;;7.60;93.70;;;;;;6093870;23;20913;-84
2022/04/10 05:42:10;;;;;;;7.53;5.20;;;7.60;93.70;;;;;;6093673;23;20426;-81
2022/04/10 05:44:42;;;;;;;11.67;6.30;;;7.60;93.60;;;;;;6095560;23;20466;-83
2022/04/10 05:47:14;;;;;;;7.23;5.10;;;7.50;93.90;;;;;;6095182;23;20482;-81
2022/04/10 05:49:48;;;;;;;6.90;4.77;;;7.50;93.90;;;;;;6120750;23;20419;-84
2022/04/10 05:52:32;;;;;;;7.70;4.60;;;7.40;94.10;;;;;;6097282;23;21332;-83
2022/04/10 05:55:05;;;;;;;6.77;4.80;;;7.40;94.20;;;;;;6096115;23;20423;-83
2022/04/10 05:57:31;;;;;;;6.93;4.47;;;7.30;94.50;;;;;;6093539;23;20490;-86
2022/04/10 05:59:58;;;;;;;7.83;4.97;;;7.20;94.80;;;;;;6089602;23;20423;-84
2022/04/10 06:02:27;;;;;;;9.20;5.50;;;7.30;95.10;;;;;;6115552;23;20448;-84
2022/04/10 06:04:55;;;;;;;6.00;4.40;;;7.30;95.00;;;;;;6089433;23;21220;-82
2022/04/10 06:07:25;;;;;;;5.70;4.27;;;7.60;95.00;;;;;;6115507;23;20765;-84
2022/04/10 06:09:52;;;;;;;7.27;5.53;;;9.00;95.00;;;;;;6115490;23;20443;-86
2022/04/10 06:12:20;;;;;;;6.30;4.70;;;12.00;90.00;;;;;;6091605;23;20419;-83
2022/04/10 06:14:50;;;;;;;6.53;4.30;;;13.70;78.80;;;;;;6091655;23;20455;-84
2022/04/10 06:17:20;;;;;;;8.33;4.80;;;15.30;71.80;;;;;;6119199;23;20440;-82
2022/04/10 06:19:46;;;;;;;6.20;4.77;;;16.70;64.90;;;;;;6117325;23;20419;-84
2022/04/10 06:22:14;;;;;;;8.83;5.23;;;17.70;59.10;;;;;;6119144;23;20416;-83
2022/04/10 06:24:41;;;;;;;8.93;4.70;;;17.80;55.70;;;;;;6124161;23;20447;-85
2022/04/10 06:27:08;;;;;;;6.87;5.17;;;15.80;56.50;;;;;;6120814;23;20808;-83
2022/04/10 06:29:34;;;;;;;5.90;4.23;;;14.30;59.00;;;;;;6117475;23;20418;-83
2022/04/10 06:32:01;;;;;;;4.90;4.40;;;13.80;63.70;;;;;;6121906;23;20747;-86
2022/04/10 06:34:28;;;;;;;4.97;4.30;;;15.10;61.60;;;;;;6136507;23;20415;-84
2022/04/10 06:36:54;;;;;;;6.70;4.60;;;15.60;60.20;;;;;;6091478;23;20431;-84
2022/04/10 06:39:21;;;;;;;7.43;4.50;;;16.70;58.40;;;;;;6117787;23;20438;-84
2022/04/10 06:41:48;;;;;;;5.67;4.20;;;17.70;56.20;;;;;;6118341;23;20686;-81
2022/04/10 06:44:14;;;;;;;6.00;4.60;;;19.30;53.40;;;;;;6119954;23;20451;-86
2022/04/10 06:46:41;;;;;;;6.30;4.40;;;20.10;50.20;;;;;;6093812;23;20534;-85
2022/04/10 06:49:08;;;;;;;4.50;4.10;;;19.60;48.70;;;;;;6095477;23;20459;-84
2022/04/10 06:51:34;;;;;;;5.90;3.97;;;19.10;49.40;;;;;;6121263;23;20415;-83
2022/04/10 06:54:01;;;;;;;4.57;3.90;;;18.80;50.20;;;;;;6129638;23;20416;-84
2022/04/10 06:56:30;;;;;;;5.87;4.13;;;19.30;48.90;;;;;;6124827;23;20431;-85
2022/04/10 06:58:57;;;;;;;4.20;3.77;;;19.20;48.00;;;;;;6120359;23;21003;-84
2022/04/10 07:01:24;;;;;;;5.23;4.30;;;17.80;48.70;;;;;;6092862;23;20420;-84
2022/04/10 07:03:50;;;;;;;4.20;3.80;;;16.40;50.20;;;;;;6119357;23;20739;-81
2022/04/10 07:06:17;;;;;;;4.53;4.13;;;14.20;53.70;;;;;;6092872;23;20955;-84
2022/04/10 07:08:45;;;;;;;5.07;3.70;;;14.30;56.50;;;;;;6091587;23;20497;-86
2022/04/10 07:11:12;;;;;;;4.50;3.80;;;15.00;56.50;;;;;;6091829;23;20416;-82
2022/04/10 07:13:39;;;;;;;4.50;3.73;;;16.10;55.00;;;;;;6092194;23;20416;-82
2022/04/10 07:16:06;;;;;;;4.60;4.10;;;16.40;53.70;;;;;;6116776;23;20435;-83
2022/04/10 07:18:32;;;;;;;4.10;3.70;;;16.90;53.60;;;;;;6127214;23;20442;-84
2022/04/10 07:20:59;;;;;;;3.77;3.47;;;17.90;51.90;;;;;;6103140;23;20438;-82
2022/04/10 07:23:45;;;;;;;5.03;4.53;;;19.00;49.90;;;;;;6090531;23;20423;-84
2022/04/10 07:26:14;;;;;;;4.63;4.00;;;19.20;48.50;;;;;;6091595;23;20459;-83
2022/04/10 07:28:41;;;;;;;5.33;4.47;;;18.60;47.20;;;;;;6118453;23;20576;-83
2022/04/10 07:31:09;;;;;;;3.90;3.50;;;15.60;50.20;;;;;;6087926;23;20416;-83
2022/04/10 07:33:37;;;;;;;5.90;4.37;;;13.60;54.00;;;;;;6071780;23;20487;-85
2022/04/10 07:36:04;;;;;;;5.40;4.60;;;12.70;57.00;;;;;;6091027;23;20506;-83
2022/04/10 07:38:31;;;;;;;5.07;4.53;;;13.10;59.40;;;;;;6089568;23;20514;-84
2022/04/10 07:40:58;;;;;;;7.93;4.87;;;13.80;58.60;;;;;;6091842;23;20458;-84
2022/04/10 07:43:25;;;;;;;5.00;4.50;;;15.50;57.30;;;;;;6093346;23;20676;-84
2022/04/10 07:48:42;;;;;;;7.53;4.27;;;18.00;50.10;;;;;;6115747;23;20463;-84
2022/04/10 07:51:09;;;;;;;8.37;5.13;;;17.40;51.10;;;;;;6090329;23;20419;-83
2022/04/10 07:53:36;;;;;;;4.60;4.20;;;18.00;49.70;;;;;;6091806;23;20455;-84
2022/04/10 07:56:03;;;;;;;7.50;4.97;;;17.70;49.10;;;;;;6088899;23;20428;-82
2022/04/10 07:58:31;;;;;;;5.33;4.43;;;16.80;50.70;;;;;;6118182;23;20880;-82
2022/04/10 08:00:58;;;;;;;3.67;2.53;;;15.90;51.20;;;;;;6094449;23;20430;-84
2022/04/10 08:03:26;;;;;;;8.33;3.90;;;14.40;52.70;;;;;;6090659;23;20522;-84
2022/04/10 08:05:53;;;;;;;6.47;4.00;;;14.00;55.50;;;;;;6094943;23;20482;-84
2022/04/10 08:08:20;;;;;;;6.20;3.40;;;13.70;55.90;;;;;;6092613;23;20455;-84
2022/04/10 08:10:47;;;;;;;5.23;3.13;;;13.90;57.40;;;;;;6089998;23;21339;-82
2022/04/10 08:13:14;;;;;;;6.43;4.13;;;16.10;54.60;;;;;;6116068;23;20412;-84
2022/04/10 08:15:41;;;;;;;4.97;3.77;;;18.50;51.40;;;;;;6120451;23;20423;-85
2022/04/10 08:18:10;;;;;;;6.90;3.33;;;20.60;47.40;;;;;;6091399;23;20428;-87
2022/04/10 08:20:37;;;;;;;3.50;3.20;;;20.30;43.30;;;;;;6091869;23;20415;-86
2022/04/10 08:23:04;;;;;;;5.07;3.70;;;17.50;45.60;;;;;;6092642;23;20418;-83
2022/04/10 08:25:31;;;;;;;5.20;3.77;;;15.20;49.40;;;;;;6091397;23;20554;-85
2022/04/10 08:27:58;;;;;;;6.70;4.40;;;15.10;52.00;;;;;;6092928;23;20424;-84
2022/04/10 08:30:25;;;;;;;5.63;3.23;;;14.70;52.50;;;;;;6092702;23;20412;-86
2022/04/10 08:32:52;;;;;;;4.57;3.20;;;15.20;53.60;;;;;;6118614;23;20522;-84
2022/04/10 08:35:20;;;;;;;4.10;3.70;;;16.00;50.90;;;;;;6093989;23;20503;-84
2022/04/10 08:37:48;;;;;;;5.97;4.23;;;14.80;51.20;;;;;;6092016;23;20539;-84
2022/04/10 08:40:15;;;;;;;3.83;3.10;;;15.40;52.50;;;;;;6093456;23;21048;-84
2022/04/10 08:42:42;;;;;;;6.67;2.70;;;16.20;50.80;;;;;;6092534;23;20443;-85
2022/04/10 08:45:09;;;;;;;4.80;3.70;;;17.20;49.70;;;;;;6093581;23;20423;-85
2022/04/10 08:47:39;;;;;;;4.00;3.50;;;16.40;48.20;;;;;;6120280;23;20459;-83
2022/04/10 08:50:07;;;;;;;11.73;4.63;;;14.10;50.40;;;;;;6096174;23;20811;-82
2022/04/10 08:52:34;;;;;;;6.70;3.63;;;13.80;54.00;;;;;;6122758;23;20412;-82
2022/04/10 08:55:02;;;;;;;7.50;2.80;;;16.00;52.20;;;;;;6120334;23;20978;-82
2022/04/10 08:57:30;;;;;;;4.73;2.90;;;16.90;48.90;;;;;;6091901;23;21339;-83
2022/04/10 08:59:58;;;;;;;4.67;3.03;;;17.30;47.70;;;;;;6096428;23;20763;-84
2022/04/10 09:02:25;;;;;;;4.00;2.67;;;17.60;45.90;;;;;;6092492;23;20960;-86
2022/04/10 09:04:53;;;;;;;4.23;2.13;;;17.00;45.50;;;;;;6095004;23;20427;-83
2022/04/10 09:07:21;;;;;;;2.50;1.73;;;17.20;45.10;;;;;;6097419;23;20519;-84
2022/04/10 09:09:56;;;;;;;2.63;2.10;;;16.80;44.10;;;;;;6124316;23;20415;-83
2022/04/10 09:26:21;;;;;;;5.03;3.07;;;17.50;44.40;;;;;;4624571;27;13383373;-87
2022/04/10 09:29:03;;;;;;;5.20;2.87;;;15.70;46.10;;;;;;5088824;28;20442;-84
2022/04/10 09:31:41;;;;;;;6.83;4.73;;;16.00;45.80;;;;;;5101547;28;20574;-84
2022/04/10 09:34:16;;;;;;;6.70;5.70;;;15.50;46.60;;;;;;5098349;28;20472;-84
2022/04/10 09:37:14;;;;;;;3.90;3.50;;;14.80;48.00;;;;;;5024156;28;20884;-83
2022/04/10 09:40:35;;;;;;;6.20;3.63;;;13.50;50.50;;;;;;5107385;28;20457;-90
2022/04/10 09:43:07;;;;;;;3.90;2.90;;;12.70;52.60;;;;;;5103083;28;20460;-88
2022/04/10 09:45:43;;;;;;;6.97;3.67;;;13.60;53.00;;;;;;5125768;28;20521;-90
2022/04/10 09:48:21;;;;;;;3.70;2.87;;;14.50;51.40;;;;;;5116257;28;20446;-85
2022/04/10 09:50:52;;;;;;;3.37;2.83;;;14.40;50.40;;;;;;5081105;28;20450;-85
2022/04/10 09:53:21;;;;;;;5.30;3.47;;;13.80;50.40;;;;;;5097473;28;20536;-85
2022/04/10 09:56:05;;;;;;;6.17;3.20;;;13.20;51.40;;;;;;5099373;28;20484;-86
2022/04/10 09:58:33;;;;;;;4.20;3.37;;;13.00;53.10;;;;;;5101687;28;20454;-86
2022/04/10 10:01:04;;;;;;;8.23;2.80;;;13.40;51.80;;;;;;5090262;28;20450;-86
2022/04/10 10:03:36;;;;;;;6.33;3.37;;;13.50;52.20;;;;;;5094764;28;20450;-86
2022/04/10 10:06:06;;;;;;;7.70;3.17;;;14.70;51.10;;;;;;5107175;28;20485;-88
2022/04/10 10:08:38;;;;;;;5.00;2.60;;;15.70;48.90;;;;;;5083519;28;20465;-85
2022/04/10 10:11:08;;;;;;;4.30;2.80;;;15.50;48.00;;;;;;5102947;28;20451;-84
2022/04/10 10:13:38;;;;;;;6.00;2.93;;;15.50;48.30;;;;;;5099463;28;20455;-84
2022/04/10 10:16:07;;;;;;;4.30;2.90;;;15.40;48.40;;;;;;5109503;28;20477;-85
2022/04/10 10:18:47;;;;;;;6.40;2.83;;;14.60;49.40;;;;;;5113502;28;20659;-83
2022/04/10 10:21:14;;;;;;;2.37;2.17;;;13.90;49.60;;;;;;5105082;28;20537;-85
2022/04/10 10:23:48;;;;;;;3.43;2.10;;;13.40;49.90;;;;;;5078523;28;20483;-87
2022/04/10 10:26:44;;;;;;;3.80;2.50;;;13.80;50.00;;;;;;5082002;28;20545;-87
2022/04/10 10:29:26;;;;;;;3.40;2.30;;;13.60;49.80;;;;;;5068770;28;20467;-84
2022/04/10 10:32:20;;;;;;;4.60;2.60;;;13.30;50.40;;;;;;5069881;28;20551;-85
2022/04/10 10:34:50;;;;;;;4.47;2.33;;;13.00;51.20;;;;;;5093589;28;20513;-84
2022/04/10 10:37:31;;;;;;;3.03;2.17;;;12.90;52.00;;;;;;5071015;28;20447;-83
2022/04/10 10:39:58;;;;;;;3.07;2.77;;;12.60;51.70;;;;;;5075605;28;20527;-83
2022/04/10 10:42:50;;;;;;;2.67;2.30;;;12.70;51.60;;;;;;5081635;28;20451;-84
2022/04/10 10:46:12;;;;;;;3.60;2.83;;;13.40;51.20;;;;;;5012403;28;20489;-85
2022/04/10 10:49:41;;;;;;;3.03;1.70;;;12.90;51.10;;;;;;4957856;28;20586;-85
2022/04/10 10:56:27;;;;;;;5.17;2.80;;;12.20;54.00;;;;;;5016636;28;20481;-85
2022/04/10 10:59:42;;;;;;;2.07;1.97;;;12.00;58.10;;;;;;4997027;28;21007;-84
2022/04/10 11:02:36;;;;;;;4.00;2.23;;;12.00;61.00;;;;;;4997492;28;20479;-85
2022/04/10 11:05:39;;;;;;;3.50;2.70;;;11.90;61.40;;;;;;4996831;28;20497;-85
2022/04/10 11:11:41;;;;;;;4.03;2.53;;;12.70;59.70;;;;;;5009922;28;20454;-85
2022/04/10 11:14:50;;;;;;;4.93;2.03;;;13.40;57.60;;;;;;5016036;28;20462;-87
2022/04/10 11:17:28;;;;;;;3.40;2.57;;;14.40;57.00;;;;;;5011453;28;20906;-86
2022/04/10 11:20:09;;;;;;;2.70;2.47;;;15.80;53.40;;;;;;4986068;28;20470;-85
2022/04/10 11:22:54;;;;;;;2.97;2.77;;;16.20;52.10;;;;;;5037243;28;20966;-88
2022/04/10 11:26:02;;;;;;;3.67;3.20;;;16.70;50.90;;;;;;5082902;28;20498;-85
2022/04/10 11:29:06;;;;;;;4.10;2.20;;;16.90;47.80;;;;;;5044151;28;20562;-84
2022/04/10 11:31:56;;;;;;;2.60;2.00;;;15.50;47.80;;;;;;4978652;28;20554;-86
2022/04/10 11:34:28;;;;;;;4.80;2.23;;;14.70;49.10;;;;;;5074221;28;21027;-85
2022/04/10 11:36:58;;;;;;;3.00;2.30;;;14.20;50.20;;;;;;5076151;28;20830;-86
2022/04/10 11:39:33;;;;;;;3.80;2.37;;;14.20;50.90;;;;;;5069549;28;20459;-86
2022/04/10 11:46:04;;;;;;;6.40;2.70;;;14.40;49.80;;;;;;5067827;23;20580;-84
2022/04/10 11:48:55;;;;;;;3.27;2.20;;;14.50;49.40;;;;;;5076783;28;20452;-84
2022/04/10 11:51:58;;;;;;;3.80;2.20;;;14.70;48.70;;;;;;5055178;28;20460;-83
2022/04/10 11:56:59;;;;;;;2.30;1.80;;;15.50;47.30;;;;;;5107900;23;20579;-85
2022/04/10 12:00:14;;;;;;;2.43;1.90;;;15.90;47.10;;;;;;5021168;28;20461;-86
2022/04/10 12:02:45;;;;;;;5.30;2.03;;;16.60;45.90;;;;;;5043050;28;20463;-85
2022/04/10 12:05:33;;;;;;;4.43;1.67;;;16.80;44.20;;;;;;5047588;23;21049;-86
2022/04/10 12:08:09;;;;;;;3.10;1.80;;;16.70;44.30;;;;;;5052885;28;20457;-85
2022/04/10 12:10:39;;;;;;;4.47;1.90;;;17.10;43.80;;;;;;5051861;28;20515;-85
2022/04/10 12:13:15;;;;;;;3.77;1.90;;;17.20;43.40;;;;;;5042262;28;20454;-88
2022/04/10 12:16:24;;;;;;;2.33;1.70;;;18.20;43.10;;;;;;5040183;28;21016;-87
2022/04/10 12:19:06;;;;;;;2.70;1.90;;;18.90;40.40;;;;;;5029463;28;20457;-85
2022/04/10 12:21:49;;;;;;;2.63;2.13;;;17.70;40.60;;;;;;5018345;28;20566;-87
2022/04/10 12:30:49;;;;;;;2.57;2.27;;;17.90;42.50;;;;;;5061252;28;20443;-87
2022/04/10 12:33:20;;;;;;;2.90;1.87;;;17.60;41.30;;;;;;5044830;28;20503;-86
2022/04/10 12:35:54;;;;;;;2.43;2.00;;;17.00;41.10;;;;;;5147751;23;20501;-87
2022/04/10 12:38:54;;;;;;;3.90;2.20;;;16.30;42.70;;;;;;5027768;28;20445;-88
2022/04/10 12:41:36;;;;;;;4.40;2.07;;;16.40;43.60;;;;;;5037954;28;20457;-89
2022/04/10 12:47:07;;;;;;;4.00;2.10;;;16.40;42.90;;;;;;5131703;23;20482;-87
2022/04/10 12:50:08;;;;;;;2.03;1.83;;;16.60;42.50;;;;;;5032879;28;20949;-85
2022/04/10 12:52:46;;;;;;;3.63;2.27;;;17.20;42.00;;;;;;5051970;28;20456;-85
2022/04/10 12:55:29;;;;;;;3.03;2.73;;;16.90;42.20;;;;;;5053124;28;20486;-86
2022/04/10 12:58:57;;;;;;;4.63;2.20;;;17.10;41.90;;;;;;5037062;28;20415;-85
2022/04/10 13:05:42;;;;;;;5.60;2.67;;;17.00;41.60;;;;;;5058391;28;20478;-85
2022/04/10 13:09:08;;;;;;;3.03;2.30;;;16.50;42.90;;;;;;4975955;28;20550;-86
2022/04/10 13:11:53;;;;;;;2.60;2.27;;;16.80;42.60;;;;;;5018553;28;20495;-88
2022/04/10 13:14:29;;;;;;;6.80;2.90;;;17.80;40.60;;;;;;5056027;28;20467;-85
2022/04/10 13:17:04;;;;;;;2.20;2.00;;;17.20;40.40;;;;;;5049292;28;20527;-85
2022/04/10 13:19:33;;;;;;;2.00;1.70;;;17.50;40.30;;;;;;5050333;28;20563;-85
2022/04/10 13:22:06;;;;;;;2.87;1.90;;;17.60;39.70;;;;;;5102141;23;20494;-84
2022/04/10 13:24:37;;;;;;;2.87;2.13;;;17.10;38.80;;;;;;5018043;28;20477;-87
2022/04/10 13:27:23;;;;;;;2.47;2.27;;;16.90;39.40;;;;;;4995660;28;20910;-87
2022/04/10 13:29:52;;;;;;;2.73;2.20;;;16.70;39.90;;;;;;4996449;28;20506;-87
2022/04/10 13:32:22;;;;;;;3.50;2.13;;;16.50;40.60;;;;;;4995624;28;20526;-87
2022/04/10 13:34:52;;;;;;;2.23;1.87;;;16.20;39.90;;;;;;4995701;28;20933;-88
2022/04/10 13:37:29;;;;;;;3.07;2.47;;;16.10;40.30;;;;;;4994000;28;20459;-85
2022/04/10 13:40:16;;;;;;;3.63;2.43;;;16.20;41.80;;;;;;4993105;28;20459;-84
2022/04/10 13:42:59;;;;;;;2.20;1.93;;;16.50;42.00;;;;;;4975957;28;20641;-84
2022/04/10 13:45:31;;;;;;;2.50;1.60;;;16.80;40.90;;;;;;4994642;28;20585;-85
2022/04/10 13:48:01;;;;;;;3.03;2.10;;;16.30;40.90;;;;;;4991509;28;20454;-87
2022/04/10 13:51:02;;;;;;;2.63;2.43;;;15.70;41.20;;;;;;4996153;28;20566;-86
2022/04/10 13:53:35;;;;;;;3.60;2.10;;;15.80;42.90;;;;;;4991884;28;20523;-85
2022/04/10 13:56:21;;;;;;;2.47;2.00;;;16.90;41.80;;;;;;5032771;23;20497;-89
2022/04/10 13:58:51;;;;;;;2.27;2.10;;;16.80;41.40;;;;;;5008259;28;20512;-85
2022/04/10 14:01:24;;;;;;;3.07;2.33;;;16.60;41.60;;;;;;5007227;28;20464;-86
2022/04/10 14:03:55;;;;;;;2.60;2.40;;;16.50;42.50;;;;;;5009313;28;20440;-87
2022/04/10 14:06:29;;;;;;;4.00;2.53;;;16.40;42.70;;;;;;4993856;28;21012;-86
2022/04/10 14:09:01;;;;;;;4.27;2.80;;;16.30;42.70;;;;;;4996097;28;20449;-84
2022/04/10 14:11:32;;;;;;;3.10;2.80;;;16.10;42.20;;;;;;5004077;28;20443;-86
2022/04/10 14:14:32;;;;;;;3.10;2.57;;;16.00;41.90;;;;;;4990798;28;20461;-87
2022/04/10 14:17:02;;;;;;;3.23;2.30;;;16.00;42.40;;;;;;4979808;28;20502;-86
2022/04/10 14:19:35;;;;;;;2.60;2.40;;;15.80;42.50;;;;;;4990906;28;20813;-87
2022/04/10 14:22:19;;;;;;;3.30;2.43;;;16.00;42.60;;;;;;4988105;28;20471;-87
2022/04/10 14:24:54;;;;;;;3.23;2.47;;;16.20;41.50;;;;;;4988836;28;20495;-86
2022/04/10 14:27:21;;;;;;;3.40;3.10;;;16.20;41.80;;;;;;4990389;28;20459;-87
2022/04/10 14:29:55;;;;;;;4.10;2.77;;;16.40;41.90;;;;;;4992101;28;20510;-86
2022/04/10 14:32:25;;;;;;;4.23;2.07;;;16.30;41.40;;;;;;4992080;28;21019;-86
2022/04/10 14:34:55;;;;;;;2.60;2.40;;;16.30;41.30;;;;;;4988685;28;20479;-87
2022/04/10 14:37:31;;;;;;;3.77;2.60;;;16.60;40.00;;;;;;4989155;28;20543;-86
2022/04/10 14:40:00;;;;;;;2.30;2.10;;;16.60;40.30;;;;;;5005727;28;20455;-88
2022/04/10 14:42:30;;;;;;;4.30;2.40;;;16.40;39.80;;;;;;4995638;28;20450;-87